Home > Products > Valid Products > TAF

000
FTUS41 KPHI 020500 RRA
TAFABE
TAF
KABE 020546Z 0206/0306 03004KT P6SM BKN025
      TEMPO 0209/0212 3SM BR BKN015
     FM021600 05006KT P6SM SCT025 BKN035
     FM030200 08004KT P6SM SCT035=



000
FTUS41 KPHI 020500 RRA
TAFMIV
TAF
KMIV 020546Z 0206/0306 VRB03KT P6SM FEW025 BKN050
      TEMPO 0209/0212 5SM BR
     FM021400 01009KT P6SM SCT025 BKN035
     FM021800 04006KT P6SM BKN035=



000
FTUS41 KPHI 020500 RRA
TAFACY
TAF
KACY 020546Z 0206/0306 36006KT P6SM SCT015 BKN030
     FM021000 36006KT 6SM BR OVC012
     FM021400 36012KT P6SM OVC020
     FM021800 02010KT P6SM OVC030
     FM022100 04006KT P6SM BKN040=



000
FTUS41 KPHI 020500 RRA
TAFTTN
TAF
KTTN 020546Z 0206/0306 02005KT P6SM OVC025
     FM021600 05008KT P6SM BKN035 BKN050
     FM030000 07005KT P6SM SCT040=



000
FTUS41 KPHI 020500 RRA
TAFPHL
TAF
KPHL 020546Z 0206/0312 03005KT P6SM SCT025 OVC100
      TEMPO 0206/0208 BKN025
     FM020800 03007KT P6SM OVC018
     FM021300 02008KT P6SM BKN030
     FM021600 02009KT P6SM SCT030 BKN040
     FM022200 06006KT P6SM BKN040
     FM030900 VRB03KT 5SM BR SCT001 BKN020=



000
FTUS41 KPHI 020500 RRA
TAFRDG
TAF
KRDG 020546Z 0206/0306 03006KT P6SM BKN025
      TEMPO 0209/0212 5SM BR BKN018
     FM021500 06007KT P6SM SCT025 BKN035
     FM022300 11003KT P6SM SCT035=



000
FTUS41 KPHI 020500 RRA
TAFPNE
TAF
KPNE 020546Z 0206/0306 01005KT P6SM BKN020 OVC100
     FM021500 02008KT P6SM SCT025 BKN035
     FM022100 06005KT P6SM BKN040=



000
FTUS41 KPHI 020500 RRA
TAFILG
TAF
KILG 020546Z 0206/0306 35004KT P6SM SCT025 OVC100
      TEMPO 0209/0212 4SM BR BKN025
     FM021200 01008KT P6SM BKN030
     FM021400 02009KT P6SM SCT030 BKN040
     FM022200 07006KT P6SM BKN040=



000
FTUS41 KPHI 012300
TAFRDG
TAF
KRDG 012333Z 0200/0224 06006KT P6SM SCT030 OVC050
      TEMPO 0201/0204 BKN030 OVC050
     FM020400 VRB02KT P6SM BKN030
     FM020900 VRB02KT 3SM BR BKN025
     FM021500 05006KT P6SM SCT025 BKN035=



000
FTUS41 KPHI 012300
TAFPNE
TAF
KPNE 012333Z 0200/0224 05008KT P6SM SCT025 OVC050
      TEMPO 0200/0203 BKN025 OVC050
     FM020300 03005KT P6SM BKN025
     FM021500 03008KT P6SM SCT020 BKN035=



000
FTUS41 KPHI 012300
TAFPHL
TAF
KPHL 012333Z 0200/0306 06007KT P6SM SCT030 BKN050
      TEMPO 0200/0203 BKN030 OVC050
     FM020300 03006KT P6SM BKN030
     FM020800 01005KT P6SM BKN020
     FM021500 03009KT P6SM SCT020 BKN035=



000
FTUS41 KPHI 012300
TAFTTN
TAF
KTTN 012333Z 0200/0224 05007KT P6SM BKN025 OVC060
      TEMPO 0200/0203 SCT025 BKN060
     FM020300 03005KT P6SM BKN020
     FM021800 06008KT P6SM SCT020 BKN035=



000
FTUS41 KPHI 012300
TAFMIV
TAF
KMIV 012333Z 0200/0224 05007KT P6SM SCT030 BKN050
      TEMPO 0200/0204 BKN030
     FM020400 03005KT P6SM BKN018
     FM020800 01005KT 5SM BR BKN010
     FM021400 01008KT P6SM BKN020
     FM021700 03010KT P6SM SCT020 BKN035=



000
FTUS41 KPHI 012300
TAFILG
TAF
KILG 012333Z 0200/0224 09006KT P6SM BKN035 OVC060
      TEMPO 0200/0203 BKN030
     FM020300 03005KT P6SM BKN030
     FM020800 01005KT P6SM BKN020
     FM021500 03010KT P6SM SCT020 BKN035=



000
FTUS41 KPHI 012300
TAFACY
TAF
KACY 012333Z 0200/0224 01006KT P6SM SCT030 OVC040
      TEMPO 0200/0204 BKN030
     FM020400 36007KT P6SM BKN018
     FM020800 36006KT 5SM BR BKN010
     FM021400 36010KT P6SM BKN020
     FM021700 02012KT P6SM SCT020 BKN035=



000
FTUS41 KPHI 012300
TAFABE
TAF
KABE 012333Z 0200/0224 07007KT P6SM SCT028 BKN090
      TEMPO 0200/0202 BKN028 OVC035
     FM020200 08004KT P6SM BKN025
     FM020900 06003KT 5SM BR BKN025
     FM021500 04006KT P6SM SCT025 BKN035=



000
FTUS41 KPHI 012000 AAA
TAFPHL
TAF AMD
KPHL 012058Z 0121/0224 05008KT P6SM FEW030 BKN050
      TEMPO 0122/0202 BKN030
     FM020200 36006KT P6SM BKN025
     FM021500 02009KT P6SM BKN030
     FM021700 36010KT P6SM BKN035=



000
FTUS41 KPHI 011700
TAFILG
TAF
KILG 011720Z 0118/0218 01007KT P6SM BKN035
      TEMPO 0122/0202 BKN025
     FM020200 36005KT P6SM BKN020
     FM021400 02008KT P6SM BKN030
     FM021600 02009KT P6SM BKN035=



000
FTUS41 KPHI 011700
TAFACY
TAF
KACY 011720Z 0118/0218 01009KT P6SM BKN020
      TEMPO 0118/0122 BKN030
     FM020000 36007KT P6SM BKN020
     FM020800 35006KT 5SM BR BKN010
     FM021400 35010KT P6SM BKN020=



000
FTUS41 KPHI 011700
TAFPNE
TAF
KPNE 011720Z 0118/0218 05007KT P6SM BKN025
      TEMPO 0118/0122 BKN035
     FM020100 35005KT P6SM BKN020
     FM021500 02008KT P6SM BKN030=



000
FTUS41 KPHI 011700
TAFRDG
TAF
KRDG 011720Z 0118/0218 02005KT P6SM BKN035
     FM020100 VRB03KT P6SM BKN030
     FM020900 VRB01KT 3SM BR BKN025
     FM021400 02007KT P6SM BKN035=



000
FTUS41 KPHI 011700
TAFPHL
TAF
KPHL 011720Z 0118/0224 04008KT P6SM BKN040
      TEMPO 0122/0202 BKN030
     FM020200 36006KT P6SM BKN025
     FM021500 02009KT P6SM BKN030
     FM021700 36010KT P6SM BKN035=



000
FTUS41 KPHI 011700
TAFTTN
TAF
KTTN 011720Z 0118/0218 05007KT P6SM BKN025
      TEMPO 0118/0122 BKN035
     FM020000 35003KT P6SM BKN020
     FM021500 02009KT P6SM BKN030=



000
FTUS41 KPHI 011700
TAFMIV
TAF
KMIV 011720Z 0118/0218 02007KT P6SM BKN025
      TEMPO 0118/0122 BKN035
     FM020000 36005KT P6SM BKN020
     FM020800 35005KT 5SM BR BKN010
     FM021400 35008KT P6SM BKN020=



000
FTUS41 KPHI 011700
TAFABE
TAF
KABE 011720Z 0118/0218 05006KT P6SM BKN035
     FM020100 02004KT P6SM BKN030
     FM020900 36003KT 5SM BR BKN025
     FM021400 02009KT P6SM BKN035=



000
FTUS41 KPHI 011400 AAA
TAFPHL
TAF AMD
KPHL 011449Z 0115/0218 05008KT P6SM BKN025
      TEMPO 0118/0122 SCT025 BKN035
     FM020800 03006KT 5SM BR BKN015
     FM021300 01009KT P6SM BKN025
     FM021600 01009KT P6SM BKN040=



000
FTUS41 KPHI 011400 AAA
TAFACY
TAF AMD
KACY 011420Z 0114/0212 03008KT P6SM OVC012
      TEMPO 0114/0116 5SM -DZ
     FM011700 02011KT P6SM SCT015 OVC040
      TEMPO 0117/0119 BKN015
     FM020000 02006KT P6SM BKN040
     FM020500 01006KT P6SM BKN012=



000
FTUS41 KPHI 011300 AAA
TAFPNE
TAF AMD
KPNE 011303Z 0113/0212 03008KT P6SM SCT025 BKN050
      TEMPO 0113/0117 BKN025
     FM011700 04009KT P6SM BKN040
     FM020100 05007KT P6SM SCT015
     FM020500 04006KT 6SM BR SCT009=



000
FTUS41 KPHI 011300 AAA
TAFTTN
TAF AMD
KTTN 011302Z 0113/0212 03006KT P6SM SCT020 BKN100
      TEMPO 0114/0118 BKN020
     FM011800 06007KT P6SM OVC040
     FM020000 05006KT P6SM BKN015
     FM020500 04006KT P6SM BKN009=



000
FTUS41 KPHI 011300 AAA
TAFABE
TAF AMD
KABE 011301Z 0113/0212 05005KT P6SM SCT025 BKN100
      TEMPO 0114/0118 P6SM BKN025
     FM011800 04005KT P6SM BKN040
     FM020000 06005KT P6SM SCT050
     FM020300 05004KT 4SM BR SCT050=



000
FTUS41 KPHI 011300 AAA
TAFRDG
TAF AMD
KRDG 011300Z 0113/0212 03005KT P6SM SCT025 OVC100
      TEMPO 0113/0117 BKN025
     FM011700 01004KT P6SM OVC040
     FM020000 09004KT P6SM BKN050
     FM020500 00000KT 5SM BR SCT050
     FM020900 00000KT 3SM BR BKN025=



000
FTUS41 KPHI 011100
TAFPHL
TAF
KPHL 011136Z 0112/0218 03008KT P6SM BKN016 OVC070
      TEMPO 0112/0114 SCT016
     FM011400 03009KT P6SM BKN025
     FM011700 03009KT P6SM BKN040
     FM020100 03008KT P6SM SCT025
     FM020500 03006KT P6SM BKN015
     FM021000 02005KT 5SM BR BKN011
     FM021300 01009KT P6SM SCT015
     FM021500 01009KT P6SM BKN050=



000
FTUS41 KPHI 011100
TAFMIV
TAF
KMIV 011136Z 0112/0212 03008KT P6SM OVC009
     FM011400 03008KT P6SM OVC015
     FM011700 03008KT P6SM OVC040
     FM020100 03006KT P6SM SCT040
     FM020500 03004KT P6SM BKN006=



000
FTUS41 KPHI 011100
TAFRDG
TAF
KRDG 011136Z 0112/0212 VRB03KT 3SM BR FEW008 FEW029 SCT090
      TEMPO 0112/0113 5SM BR BKN008
     FM011300 03005KT P6SM BKN025
     FM011700 01004KT P6SM OVC040
     FM020000 09004KT P6SM BKN050
     FM020500 00000KT 5SM BR SCT050
     FM020900 00000KT 3SM BR BKN025=



000
FTUS41 KPHI 011100
TAFABE
TAF
KABE 011136Z 0112/0212 05005KT P6SM VCSH OVC100
      TEMPO 0112/0114 P6SM BKN015
     FM011400 03006KT P6SM BKN025
     FM011800 04005KT P6SM BKN040
     FM020000 06005KT P6SM SCT050
     FM020300 05004KT 4SM BR SCT050=



000
FTUS41 KPHI 011100
TAFPNE
TAF
KPNE 011136Z 0112/0212 05008KT P6SM BKN017 OVC029
      TEMPO 0112/0114 SCT017 BKN100
     FM011400 03009KT P6SM BKN025
     FM011700 04009KT P6SM BKN040
     FM020100 05007KT P6SM SCT015
     FM020500 04006KT 6SM BR SCT009=



000
FTUS41 KPHI 011100
TAFACY
TAF
KACY 011136Z 0112/0212 02009KT 4SM BR VCSH OVC007
     FM011400 03008KT P6SM OVC012
     FM011700 02011KT P6SM SCT015 OVC040
     FM020000 02006KT P6SM BKN040
     FM020500 01006KT P6SM BKN012=



000
FTUS41 KPHI 011100
TAFTTN
TAF
KTTN 011136Z 0112/0212 03006KT P6SM FEW017 OVC030
      TEMPO 0112/0114 BKN017
     FM011400 05007KT P6SM OVC030
     FM011800 06007KT P6SM OVC040
     FM020000 05006KT P6SM BKN015
     FM020500 04006KT P6SM BKN009=



000
FTUS41 KPHI 011100
TAFILG
TAF
KILG 011136Z 0112/0212 02004KT P6SM SCT012 BKN100
      TEMPO 0112/0114 BKN012
     FM011400 03008KT P6SM BKN025
     FM011700 03008KT P6SM BKN040
     FM020000 05006KT P6SM SCT040
     FM020500 03005KT P6SM SCT007
     FM021000 36005KT P6SM BKN007=



000
FTUS41 KPHI 011000 AAC
TAFACY
TAF AMD
KACY 011031Z 0111/0206 02009KT 4SM BR VCSH OVC007
     FM011400 03008KT P6SM OVC012
     FM011700 02011KT P6SM SCT015 OVC040
     FM020000 02006KT P6SM BKN040
     FM020500 01006KT P6SM BKN020=



000
FTUS41 KPHI 011000 AAB
TAFILG
TAF AMD
KILG 011030Z 0111/0206 02004KT P6SM BKN100
      TEMPO 0111/0113 BKN025
     FM011400 03008KT P6SM BKN025
     FM011700 03008KT P6SM SCT015 BKN040
     FM020000 05006KT P6SM SCT040
     FM020500 03005KT P6SM SCT007=



000
FTUS41 KPHI 011000 AAC
TAFRDG
TAF AMD
KRDG 011028Z 0110/0206 32004KT 2SM BR FEW008 SCT090
      TEMPO 0111/0113 5SM BR BKN008
     FM011300 03005KT P6SM BKN015
     FM011700 01004KT P6SM SCT015 OVC040
     FM020000 09004KT P6SM BKN050
     FM020500 00000KT 5SM BR SCT050=



000
FTUS41 KPHI 010900 AAB
TAFACY
TAF AMD
KACY 010922Z 0109/0206 02009KT P6SM -SHRA OVC005
     FM011400 03008KT P6SM OVC012
     FM011700 02011KT P6SM SCT015 OVC040
     FM020000 02006KT P6SM BKN040
     FM020500 01006KT P6SM BKN020=



000
FTUS41 KPHI 010900 AAA
TAFTTN
TAF AMD
KTTN 010921Z 0109/0206 03005KT P6SM BKN010 BKN018 OVC080
     FM011400 05007KT P6SM BKN015
     FM011800 06007KT P6SM SCT015 OVC040
     FM020000 05006KT P6SM BKN015
     FM020500 04006KT P6SM BKN009=



000
FTUS41 KPHI 010900 AAB
TAFRDG
TAF AMD
KRDG 010919Z 0109/0206 VRB03KT P6SM BKN027 OVC110
      TEMPO 0110/0113 BKN015
     FM011300 03005KT P6SM BKN015
     FM011700 01004KT P6SM SCT015 OVC040
     FM020000 09004KT P6SM BKN050
     FM020500 00000KT 5SM BR SCT050=



000
FTUS41 KPHI 010900 AAB
TAFPHL
TAF AMD
KPHL 010918Z 0109/0212 05008KT P6SM SCT016 BKN029 BKN110
      TEMPO 0110/0113 BKN015
     FM011300 04009KT P6SM BKN015
     FM011700 02008KT P6SM SCT015 BKN040
     FM020000 04007KT P6SM SCT025
     FM020500 03006KT P6SM BKN015
     FM021000 02005KT 5SM BR BKN007=



000
FTUS41 KPHI 010800 AAA
TAFACY
TAF AMD
KACY 010815Z 0108/0206 01008KT P6SM VCSH BKN007 OVC011
     FM011400 03008KT P6SM OVC012
     FM011700 02011KT P6SM SCT015 OVC040
     FM020000 02006KT P6SM BKN040
     FM020500 01006KT P6SM BKN020=



000
FTUS41 KPHI 010800 AAA
TAFMIV
TAF AMD
KMIV 010814Z 0108/0206 03006KT P6SM BKN009 OVC150
      TEMPO 0108/0110 SCT009
     FM011400 03008KT P6SM OVC012
     FM011700 03008KT P6SM SCT015 OVC040
     FM020000 03006KT P6SM SCT040
     FM020500 03004KT P6SM BKN006=



000
FTUS41 KPHI 010800 AAA
TAFILG
TAF AMD
KILG 010813Z 0108/0206 36007KT P6SM BKN150
      TEMPO 0109/0113 BKN015
     FM011400 03008KT P6SM BKN015
     FM011700 03008KT P6SM SCT015 BKN040
     FM020000 05006KT P6SM SCT040
     FM020500 03005KT P6SM SCT007=



000
FTUS41 KPHI 010800 AAA
TAFPHL
TAF AMD
KPHL 010812Z 0108/0212 02006KT P6SM -RA SCT015 BKN029 OVC110
      TEMPO 0109/0111 P6SM NSW BKN015
     FM011100 02008KT P6SM BKN008 OVC012
     FM011300 04009KT P6SM BKN015
     FM011700 02008KT P6SM SCT015 BKN040
     FM020000 04007KT P6SM SCT025
     FM020500 03006KT P6SM BKN015
     FM021000 02005KT 5SM BR BKN007=



000
FTUS41 KPHI 010800 AAA
TAFPNE
TAF AMD
KPNE 010809Z 0108/0206 04006KT P6SM FEW017 OVC026
      TEMPO 0109/0111 BKN015
     FM011100 03008KT P6SM BKN007 OVC012
     FM011400 03008KT P6SM BKN015
     FM011700 04008KT P6SM SCT015 BKN040
     FM020000 05006KT P6SM SCT015
     FM020500 04006KT 6SM BR SCT007=



000
FTUS41 KPHI 010800 AAA
TAFABE
TAF AMD
KABE 010808Z 0108/0206 03003KT P6SM FEW018 OVC028
      TEMPO 0109/0111 5SM -SHRA BR BKN018
     FM011100 05005KT 5SM BR OVC012
     FM011400 03006KT P6SM BKN015
     FM011800 04005KT P6SM SCT015 BKN040
     FM020000 06005KT P6SM SCT050
     FM020300 05004KT 4SM BR SCT050=



000
FTUS41 KPHI 010800 AAA
TAFRDG
TAF AMD
KRDG 010806Z 0108/0206 04003KT P6SM -RA OVC100
     FM010900 03003KT P6SM SCT015 OVC100
      TEMPO 0109/0113 BKN015
     FM011300 03005KT P6SM BKN015
     FM011700 01004KT P6SM SCT015 OVC040
     FM020000 09004KT P6SM BKN050
     FM020500 00000KT 5SM BR SCT050=



000
FTUS41 KPHI 010500
TAFILG
TAF
KILG 010539Z 0106/0206 06006KT P6SM BKN015
      TEMPO 0106/0108 SCT015 BKN090
     FM011000 03006KT 6SM BR OVC006
     FM011400 03008KT P6SM BKN015
     FM011700 03008KT P6SM SCT015 BKN040
     FM020000 05006KT P6SM SCT040
     FM020500 03005KT P6SM SCT007=



000
FTUS41 KPHI 010500
TAFRDG
TAF
KRDG 010539Z 0106/0206 00000KT P6SM VCSH BKN020
      TEMPO 0106/0108 -SHRA BKN015
     FM010800 VRB03KT 5SM BR OVC008
     FM011400 03005KT P6SM BKN015
     FM011700 01004KT P6SM SCT015 OVC040
     FM020000 09004KT P6SM BKN050
     FM020500 00000KT 5SM BR SCT050=



000
FTUS41 KPHI 010500
TAFTTN
TAF
KTTN 010539Z 0106/0206 02004KT P6SM BKN020
     FM010900 05006KT 4SM BR VCSH OVC006
     FM011400 05007KT P6SM VCSH BKN015
     FM011800 06007KT P6SM SCT015 OVC040
     FM020000 05006KT P6SM BKN015
     FM020500 04006KT P6SM BKN009=



000
FTUS41 KPHI 010500
TAFACY
TAF
KACY 010539Z 0106/0206 01006KT P6SM VCSH OVC016
      TEMPO 0106/0110 3SM SHRA BR BKN006
     FM011000 04007KT 4SM BR OVC006
     FM011400 03008KT P6SM OVC012
     FM011700 02011KT P6SM SCT015 OVC040
     FM020000 02006KT P6SM BKN040
     FM020500 01006KT P6SM BKN020=



000
FTUS41 KPHI 010500
TAFPHL
TAF
KPHL 010539Z 0106/0212 05007KT P6SM SCT015 BKN150
      TEMPO 0107/0111 BKN015
     FM011100 02008KT P6SM BKN008 OVC012
     FM011300 04009KT P6SM BKN015
     FM011700 02008KT P6SM SCT015 BKN040
     FM020000 04007KT P6SM SCT025
     FM020500 03006KT P6SM BKN015
     FM021000 02005KT 5SM BR BKN007=



000
FTUS41 KPHI 010500
TAFABE
TAF
KABE 010539Z 0106/0206 00000KT P6SM OVC015
      TEMPO 0107/0111 -SHRA BKN009
     FM011100 05005KT 5SM BR OVC005
     FM011400 03006KT P6SM BKN015
     FM011800 04005KT P6SM SCT015 BKN040
     FM020000 06005KT P6SM SCT050
     FM020300 05004KT 4SM BR SCT050=



000
FTUS41 KPHI 010500
TAFPNE
TAF
KPNE 010539Z 0106/0206 02003KT P6SM SCT015 BKN150
      TEMPO 0107/0111 BKN015
     FM011100 03008KT P6SM BKN007 OVC012
     FM011400 03008KT P6SM BKN015
     FM011700 04008KT P6SM SCT015 BKN040
     FM020000 05006KT P6SM SCT015
     FM020500 04006KT 6SM BR SCT007=



000
FTUS41 KPHI 010500
TAFMIV
TAF
KMIV 010539Z 0106/0206 01005KT P6SM BKN007
     FM010800 02005KT 6SM BR OVC005
     FM011400 03008KT P6SM OVC012
     FM011700 03008KT P6SM SCT015 OVC040
     FM020000 03006KT P6SM SCT040
     FM020500 03004KT P6SM BKN006=



000
FTUS41 KPHI 010400 AAA
TAFACY
TAF AMD
KACY 010454Z 0105/0124 01006KT P6SM BKN008 BKN013
      TEMPO 0105/0109 3SM -SHRA BR BKN006
     FM010900 04006KT 4SM BR OVC006
     FM011400 03008KT P6SM OVC012
     FM011700 01008KT P6SM SCT015 BKN040=



000
FTUS41 KPHI 010400 AAA
TAFMIV
TAF AMD
KMIV 010452Z 0105/0124 03005KT P6SM BKN110
      TEMPO 0105/0106 BKN016
     FM010600 04004KT P6SM BKN012
     FM010800 02005KT 4SM BR BKN006
     FM011400 03008KT P6SM BKN015
     FM011700 03008KT P6SM SCT015 BKN040=



000
FTUS41 KPHI 010400 AAC
TAFILG
TAF AMD
KILG 010450Z 0105/0124 07004KT P6SM OVC100
      TEMPO 0106/0108 5SM SHRA BKN020
     FM010800 04006KT P6SM BKN015
     FM011000 02006KT 6SM BR BKN008 OVC012
     FM011300 02008KT P6SM BKN015
     FM011700 01008KT P6SM SCT015 BKN040=



000
FTUS41 KPHI 010400 AAA
TAFTTN
TAF AMD
KTTN 010449Z 0105/0124 09004KT P6SM BKN025
     FM010600 08006KT P6SM OVC015
     FM010900 05006KT 4SM BR VCSH OVC006
     FM011400 05007KT P6SM BKN015
     FM011800 06007KT P6SM SCT015 BKN040=



000
FTUS41 KPHI 010400 AAB
TAFABE
TAF AMD
KABE 010443Z 0105/0124 00000KT P6SM BKN015 OVC090
      TEMPO 0106/0110 5SM SHRA
     FM011000 05005KT 4SM BR OVC005
     FM011400 03006KT P6SM BKN015
     FM011800 04005KT P6SM SCT015 BKN040=



000
FTUS41 KPHI 010300 AAB
TAFPHL
TAF AMD
KPHL 010309Z 0103/0206 07008KT P6SM FEW015 BKN090
      TEMPO 0105/0109 6SM SHRA BKN015
     FM010900 02007KT 6SM BR BKN008 OVC012
     FM011300 04008KT P6SM BKN015
     FM011700 02008KT P6SM SCT015 BKN040=



000
FTUS41 KPHI 010300 AAA
TAFPNE
TAF AMD
KPNE 010308Z 0103/0124 04004KT P6SM BKN090
      TEMPO 0105/0109 -SHRA BKN015
     FM010900 03006KT 6SM BR BKN007 OVC012
     FM011300 03008KT P6SM BKN015
     FM011700 04008KT P6SM SCT015 BKN040=



000
FTUS41 KPHI 010100 AAA
TAFABE
TAF AMD
KABE 010153Z 0102/0124 12010KT P6SM VCSH SCT040 BKN100
      TEMPO 0104/0107 5SM SHRA
     FM010700 08005KT 5SM BR OVC012
     FM010900 05005KT 2SM BR OVC005
     FM011400 03006KT P6SM BKN015
     FM011800 04005KT P6SM SCT015 BKN040=



000
FTUS41 KPHI 010100 AAA
TAFPHL
TAF AMD
KPHL 010153Z 0102/0206 08012KT P6SM VCSH FEW020 BKN150
      TEMPO 0104/0106 6SM SHRA
     FM010700 03007KT P6SM BKN015
     FM010900 02007KT 6SM BR BKN008 OVC012
     FM011300 04008KT P6SM BKN015
     FM011700 02008KT P6SM SCT015 BKN040=



000
FTUS41 KPHI 010100 AAA
TAFRDG
TAF AMD
KRDG 010153Z 0102/0124 12006KT P6SM VCSH BKN060
      TEMPO 0103/0106 4SM TSRA BKN025CB
     FM010600 08003KT 6SM BR BKN012
     FM010800 VRB03KT 2SM BR BKN006
     FM011400 03005KT P6SM BKN015
     FM011700 01004KT P6SM SCT015 BKN040=



000
FTUS41 KPHI 010100 AAB
TAFILG
TAF AMD
KILG 010153Z 0102/0124 12008KT P6SM VCSH SCT020 BKN035
      TEMPO 0104/0106 5SM SHRA BKN025
     FM010700 04006KT P6SM BKN015
     FM010900 02006KT 6SM BR BKN008 OVC012
     FM011300 02008KT P6SM BKN015
     FM011700 01008KT P6SM SCT015 BKN040=



000
FTUS41 KPHI 010000 AAA
TAFILG
TAF AMD
KILG 010010Z 0100/0124 12008KT P6SM VCSH SCT028 BKN035
      TEMPO 0100/0102 BKN028
     FM010200 10007KT P6SM VCSH SCT025 BKN035
      TEMPO 0102/0106 -SHRA BKN025
     FM010700 04006KT P6SM BKN015
     FM010900 02006KT 6SM BR BKN008 OVC012
     FM011300 02008KT P6SM BKN015
     FM011700 01008KT P6SM SCT015 BKN040=



000
FTUS41 KPHI 302300
TAFPHL
TAF
KPHL 302340Z 0100/0206 08012KT P6SM VCSH SCT050 BKN150
      TEMPO 0102/0106 -SHRA BKN035
     FM010600 03007KT P6SM BKN015
     FM010900 02007KT 6SM BR BKN008 OVC012
     FM011300 04008KT P6SM BKN015
     FM011700 02008KT P6SM SCT015 BKN040=



000
FTUS41 KPHI 302300
TAFTTN
TAF
KTTN 302340Z 0100/0124 10008KT P6SM VCSH FEW040 BKN150
      TEMPO 0102/0106 -SHRA BKN035
     FM010600 08006KT 6SM BR OVC012
     FM010900 05006KT 4SM BR OVC006
     FM011400 05007KT P6SM BKN015
     FM011800 06007KT P6SM SCT015 BKN040=



000
FTUS41 KPHI 302300
TAFRDG
TAF
KRDG 302340Z 0100/0124 12006KT P6SM VCSH BKN060
      TEMPO 0101/0105 6SM SHRA BKN035
     FM010500 08003KT 6SM BR BKN012
     FM010800 VRB03KT 2SM BR BKN006
     FM011400 03005KT P6SM BKN015
     FM011700 01004KT P6SM SCT015 BKN040=



000
FTUS41 KPHI 302300
TAFILG
TAF
KILG 302340Z 0100/0124 17008KT P6SM VCSH SCT050 BKN150
     FM010200 10007KT P6SM BKN040
      TEMPO 0102/0106 -SHRA BKN035
     FM010700 04006KT P6SM BKN015
     FM010900 02006KT 6SM BR BKN008 OVC012
     FM011300 02008KT P6SM BKN015
     FM011700 01008KT P6SM SCT015 BKN040=



000
FTUS41 KPHI 302300
TAFMIV
TAF
KMIV 302340Z 0100/0124 10008KT P6SM SCT025
      TEMPO 0102/0106 BKN025
     FM010600 04004KT 6SM BR BKN012
     FM010800 02005KT 4SM BR BKN006
     FM011400 03008KT P6SM BKN015
     FM011700 03008KT P6SM SCT015 BKN040=



000
FTUS41 KPHI 302300
TAFABE
TAF
KABE 302340Z 0100/0124 12010KT P6SM VCSH SCT060 BKN150
      TEMPO 0102/0106 SHRA BKN035
     FM010600 08005KT 5SM BR OVC012
     FM010800 05005KT 2SM BR OVC005
     FM011400 03006KT P6SM BKN015
     FM011800 04005KT P6SM SCT015 BKN040=



000
FTUS41 KPHI 302300
TAFPNE
TAF
KPNE 302340Z 0100/0124 10012KT P6SM VCSH SCT060 BKN150
      TEMPO 0102/0106 -SHRA BKN035
     FM010600 05005KT P6SM BKN015
     FM010900 03006KT 6SM BR BKN007 OVC012
     FM011300 03008KT P6SM BKN015
     FM011700 04008KT P6SM SCT015 BKN040=



000
FTUS41 KPHI 302300
TAFACY
TAF
KACY 302340Z 0100/0124 07008KT P6SM SCT020 BKN150
      TEMPO 0102/0106 BKN025
     FM010600 02005KT 6SM BR BKN012
     FM010800 04006KT 4SM BR BKN006
     FM011400 03008KT P6SM BKN015
     FM011700 01008KT P6SM SCT015 BKN040=



000
FTUS41 KPHI 302200 AAA
TAFMIV
TAF AMD
KMIV 302240Z 3023/0118 10010KT P6SM BKN025
     FM010400 04004KT 6SM BR BKN012
     FM010800 02006KT 4SM BR BKN006
     FM011400 03008KT P6SM BKN010=



000
FTUS41 KPHI 302100 AAA
TAFPHL
TAF AMD
KPHL 302107Z 3021/0124 10005KT P6SM SCT050 BKN200
     FM010000 09007KT P6SM BKN040
     FM010600 03008KT P6SM BKN015
     FM010900 02010KT 6SM BR BKN008 OVC012
     FM011300 04010KT P6SM BKN010
     FM011700 02008KT P6SM SCT015 BKN040=



000
FTUS41 KPHI 301700 RRA
TAFPNE
TAF
KPNE 301741Z 3018/0118 VRB04KT P6SM SCT040 SCT200
     FM010000 09006KT P6SM BKN040
     FM010500 03008KT P6SM BKN015
     FM010800 03008KT 6SM BR BKN007 OVC012
     FM011300 04010KT P6SM BKN010
     FM011700 02008KT P6SM SCT015 BKN040=



000
FTUS41 KPHI 301700 RRA
TAFABE
TAF
KABE 301741Z 3018/0118 VRB03KT P6SM SCT040
     FM010000 06004KT P6SM BKN040
     FM010400 07008KT 5SM BR OVC012
     FM010700 06006KT 2SM BR OVC005
     FM011400 03008KT P6SM BKN010=



000
FTUS41 KPHI 301700 RRA
TAFPHL
TAF
KPHL 301741Z 3018/0124 12006KT P6SM SCT050 SCT200
     FM010000 09007KT P6SM BKN040
     FM010600 03008KT P6SM BKN015
     FM010900 02010KT 6SM BR BKN008 OVC012
     FM011300 04010KT P6SM BKN010
     FM011700 02008KT P6SM SCT015 BKN040=



000
FTUS41 KPHI 301700 RRA
TAFRDG
TAF
KRDG 301741Z 3018/0118 13006KT P6SM BKN050
     FM302200 09005KT P6SM BKN050
     FM010300 00000KT 6SM BR BKN012
     FM010600 04006KT 2SM BR BKN006
     FM011400 03008KT P6SM BKN010=



000
FTUS41 KPHI 301700 RRA
TAFILG
TAF
KILG 301741Z 3018/0118 14006KT P6SM SCT050 SCT200
     FM010000 09007KT P6SM BKN040
     FM010600 03008KT P6SM BKN015
     FM010900 02010KT 6SM BR BKN008 OVC012
     FM011300 04010KT P6SM BKN010
     FM011700 02008KT P6SM SCT015 BKN040=



000
FTUS41 KPHI 301700 RRA
TAFACY
TAF
KACY 301741Z 3018/0118 09006KT P6SM SCT040 SCT150
     FM302300 09005KT P6SM BKN040
     FM010200 00000KT 6SM BR BKN012
     FM010600 04006KT 4SM BR BKN006
     FM011400 03008KT P6SM BKN010=



000
FTUS41 KPHI 301700 RRA
TAFTTN
TAF
KTTN 301741Z 3018/0118 12006KT P6SM FEW040
     FM010000 08007KT P6SM BKN040
     FM010400 07008KT 6SM BR OVC012
     FM010900 06006KT 4SM BR OVC006
     FM011400 03010KT P6SM BKN010=



000
FTUS41 KPHI 301700 RRA
TAFMIV
TAF
KMIV 301741Z 3018/0118 12005KT P6SM SCT040 SCT200
     FM302300 09005KT P6SM BKN040
     FM010200 00000KT 6SM BR BKN012
     FM010600 04006KT 4SM BR BKN006
     FM011400 03008KT P6SM BKN010=



000
FTUS41 KPHI 301500 AAC
TAFABE
TAF AMD
KABE 301509Z 3015/0112 13003KT P6SM BKN010 OVC025
      TEMPO 3015/3016 SCT010 BKN025
     FM301600 11005KT P6SM SCT020 BKN050
     FM010100 06004KT P6SM BKN150
     FM010500 07007KT 4SM BR BKN008=



000
FTUS41 KPHI 301500 AAA
TAFPHL
TAF AMD
KPHL 301503Z 3015/0118 11005KT P6SM FEW040 SCT200
     FM301800 10006KT P6SM SCT050 BKN150
     FM010600 03008KT P6SM BKN010
     FM010900 02010KT 6SM BR OVC006
     FM011500 04010KT P6SM BKN010=



000
FTUS41 KPHI 301400 AAB
TAFRDG
TAF AMD
KRDG 301407Z 3014/0112 17003KT 4SM HZ BKN008 OVC120
      TEMPO 3014/3015 6SM HZ SCT008 OVC120
     FM301500 14005KT P6SM SCT050
      TEMPO 3018/3022 BKN050
     FM302200 09005KT P6SM BKN050
     FM010200 00000KT 6SM BR BKN120
     FM010600 04006KT 2SM BR BKN008=



000
FTUS41 KPHI 301400 AAB
TAFABE
TAF AMD
KABE 301402Z 3014/0112 VRB03KT 3SM BR BKN004 OVC017
      TEMPO 3014/3015 5SM BR SCT004 BKN017
     FM301500 11004KT 6SM BR BKN020 BKN050
     FM301600 11005KT P6SM BKN050
     FM010100 06004KT P6SM BKN150
     FM010500 07007KT 4SM BR BKN008=



000
FTUS41 KPHI 301300 AAA
TAFRDG
TAF AMD
KRDG 301304Z 3013/0112 00000KT 4SM BR BKN006
      TEMPO 3013/3014 5SM BR SCT008
     FM301400 VRB02KT 5SM BR SCT008
     FM301500 14005KT P6SM SCT050
      TEMPO 3018/3022 BKN050
     FM302200 09005KT P6SM BKN050
     FM010200 00000KT 6SM BR BKN120
     FM010600 04006KT 2SM BR BKN008=



000
FTUS41 KPHI 301200 AAA
TAFABE
TAF AMD
KABE 301259Z 3013/0112 00000KT 1/4SM FG BKN002 OVC017
      TEMPO 3013/3014 2SM BR SCT003 BKN015
     FM301400 11005KT 5SM BR SCT012
     FM301500 11005KT P6SM BKN050
     FM010100 06004KT P6SM BKN150
     FM010500 07007KT 4SM BR BKN008=



000
FTUS41 KPHI 301100
TAFILG
TAF
KILG 301137Z 3012/0112 12005KT P6SM FEW070 BKN120
     FM301700 13008KT P6SM FEW050 BKN150
     FM010300 07008KT P6SM SCT050
     FM010600 04009KT 6SM BR BKN012
     FM010900 03008KT 5SM BR OVC007=



000
FTUS41 KPHI 301100
TAFMIV
TAF
KMIV 301137Z 3012/0112 00000KT 6SM BR VCSH OVC110
     FM301400 11005KT P6SM SCT050 BKN150
     FM301700 09005KT P6SM BKN040
     FM010000 06005KT P6SM SCT010
     FM010600 04008KT 5SM BR OVC006=



000
FTUS41 KPHI 301100
TAFTTN
TAF
KTTN 301137Z 3012/0112 00000KT P6SM BKN150
      TEMPO 3012/3013 6SM BR FEW008
     FM301300 15005KT P6SM SCT050
      TEMPO 3017/3020 BKN050
     FM010000 09007KT P6SM BKN150
     FM010400 07008KT 5SM BR OVC009
     FM010900 06006KT 3SM BR OVC005=



000
FTUS41 KPHI 301100
TAFPHL
TAF
KPHL 301137Z 3012/0118 15005KT P6SM BKN150
     FM301800 11006KT P6SM SCT050 BKN150
     FM010600 03008KT P6SM BKN010
     FM010900 02010KT 6SM BR OVC006
     FM011500 04010KT P6SM BKN010=



000
FTUS41 KPHI 301100
TAFPNE
TAF
KPNE 301137Z 3012/0112 15005KT P6SM BKN150
     FM301800 09006KT P6SM SCT050 BKN150
     FM010500 03008KT P6SM BKN010
     FM010800 03008KT 6SM BR OVC007=



000
FTUS41 KPHI 301100
TAFABE
TAF
KABE 301137Z 3012/0112 00000KT 1/4SM FG BKN001 OVC017
      TEMPO 3012/3013 2SM BR SCT003 BKN015
     FM301300 11005KT 5SM BR SCT012
     FM301500 11005KT P6SM BKN050
     FM010100 06004KT P6SM BKN150
     FM010500 07007KT 4SM BR BKN008=



000
FTUS41 KPHI 301100
TAFACY
TAF
KACY 301137Z 3012/0112 00000KT P6SM VCSH FEW050 OVC110
     FM301500 11005KT P6SM BKN150
     FM301800 09008KT P6SM SCT050
     FM010000 06007KT P6SM BKN012
     FM010500 03010KT 6SM BR OVC006=



000
FTUS41 KPHI 301100
TAFRDG
TAF
KRDG 301137Z 3012/0112 00000KT 4SM BR OVC010
      TEMPO 3012/3013 1 1/2SM BR BKN006
     FM301330 00000KT 5SM BR SCT008
     FM301500 14005KT P6SM SCT050
      TEMPO 3018/3022 BKN050
     FM302200 09005KT P6SM BKN050
     FM010200 00000KT 6SM BR BKN120
     FM010600 04006KT 2SM BR BKN008=



000
FTUS41 KPHI 301000 AAB
TAFTTN
TAF AMD
KTTN 301026Z 3010/0106 00000KT P6SM BKN150
      TEMPO 3011/3013 6SM BR FEW008
     FM301300 15005KT P6SM FEW050
      TEMPO 3018/3020 BKN050
     FM010000 09007KT P6SM BKN120
     FM010400 07008KT 5SM BR OVC009=



000
FTUS41 KPHI 301000 AAC
TAFABE
TAF AMD
KABE 301025Z 3010/0106 00000KT 1/4SM FG BKN003 OVC017
      TEMPO 3010/3013 2SM BR SCT003 BKN015
     FM301300 11005KT P6SM SCT050
      TEMPO 3018/3022 BKN050
     FM010000 06003KT P6SM BKN150
     FM010500 07007KT 6SM BR BKN020=



000
FTUS41 KPHI 300900 AAA
TAFMIV
TAF AMD
KMIV 300917Z 3009/0106 00000KT P6SM OVC110
      TEMPO 3010/3013 4SM BR
     FM301300 11005KT P6SM SCT050
     FM010000 06005KT P6SM SCT100=



000
FTUS41 KPHI 300900 AAB
TAFILG
TAF AMD
KILG 300916Z 3009/0106 00000KT P6SM -RA BKN110
      TEMPO 3010/3012 5SM BR
     FM301400 13007KT P6SM FEW050 BKN150
     FM010000 10006KT P6SM SCT040=



000
FTUS41 KPHI 300900 AAA
TAFPNE
TAF AMD
KPNE 300915Z 3009/0106 00000KT P6SM BKN150
      TEMPO 3011/3012 5SM BR
     FM301400 14005KT P6SM BKN150
     FM301800 09006KT P6SM SCT040 BKN150=



000
FTUS41 KPHI 300900 AAA
TAFTTN
TAF AMD
KTTN 300913Z 3009/0106 00000KT P6SM SKC
      TEMPO 3010/3013 4SM BR FEW008
     FM301300 15005KT P6SM FEW050
      TEMPO 3018/3020 BKN050
     FM010000 09007KT P6SM BKN120
     FM010400 07008KT 5SM BR OVC009=



000
FTUS41 KPHI 300900 AAB
TAFRDG
TAF AMD
KRDG 300912Z 3009/0106 00000KT 1/2SM FG OVC005
      TEMPO 3009/3013 2SM BR OVC008
     FM301300 00000KT 3SM BR SCT008
     FM301400 14005KT P6SM SCT050
      TEMPO 3018/3022 BKN050
     FM010000 00000KT P6SM BKN150=



000
FTUS41 KPHI 300900 AAA
TAFPHL
TAF AMD
KPHL 300911Z 3009/0112 00000KT P6SM BKN150
     FM301800 12006KT P6SM SCT040 BKN150
     FM010800 02007KT 5SM BR BKN010=



000
FTUS41 KPHI 300800 AAB
TAFABE
TAF AMD
KABE 300844Z 3009/0106 36003KT 1/4SM FG VV012
      TEMPO 3009/3012 2SM BR BKN150
     FM301300 11005KT P6SM SCT050
      TEMPO 3018/3022 BKN050
     FM010000 06003KT P6SM BKN150
     FM010500 07007KT 6SM BR BKN020=



000
FTUS41 KPHI 300800 AAA
TAFRDG
TAF AMD
KRDG 300800Z 3008/0106 00000KT 4SM BR BKN150
      TEMPO 3008/3012 1/2SM FG VV004
     FM301400 14005KT P6SM SCT050
      TEMPO 3018/3022 BKN050
     FM010000 00000KT P6SM BKN150=



000
FTUS41 KPHI 300700 AAA
TAFILG
TAF AMD
KILG 300708Z 3007/0106 00000KT 3SM BR BKN150
      TEMPO 3008/3012 1SM BR
     FM301400 13007KT P6SM FEW050 BKN150
     FM010000 10006KT P6SM SCT040=



000
FTUS41 KPHI 300700 AAA
TAFABE
TAF AMD
KABE 300707Z 3007/0106 07003KT 3/4SM BR VV011
      TEMPO 3008/3012 2SM BR BKN150
     FM301300 11005KT P6SM SCT050
      TEMPO 3018/3022 BKN050
     FM010000 06003KT P6SM BKN150
     FM010500 07007KT 6SM BR BKN020=



000
FTUS41 KPHI 300500
TAFRDG
TAF
KRDG 300539Z 3006/0106 00000KT P6SM BKN150
      TEMPO 3009/3012 3SM BR
     FM301400 14005KT P6SM SCT050
      TEMPO 3018/3022 BKN050
     FM010000 00000KT P6SM BKN150=



000
FTUS41 KPHI 300500
TAFPNE
TAF
KPNE 300539Z 3006/0106 13004KT 6SM HZ BKN150
      TEMPO 3008/3012 4SM BR
     FM301400 14005KT P6SM BKN150
     FM301800 09006KT P6SM SCT040 BKN150=



000
FTUS41 KPHI 300500
TAFTTN
TAF
KTTN 300539Z 3006/0106 17004KT 5SM BR OVC100
      TEMPO 3008/3012 3SM BR
     FM301300 15005KT P6SM FEW050
      TEMPO 3018/3020 BKN050
     FM010000 09007KT P6SM BKN120
     FM010400 07008KT 5SM BR OVC009=



000
FTUS41 KPHI 300500
TAFMIV
TAF
KMIV 300539Z 3006/0106 00000KT 5SM BR OVC100
      TEMPO 3008/3012 3SM BR
     FM301300 11005KT P6SM SCT050
     FM010000 06005KT P6SM SCT100=



000
FTUS41 KPHI 300500
TAFILG
TAF
KILG 300539Z 3006/0106 00000KT 6SM BR BKN150
      TEMPO 3008/3012 3SM BR
     FM301400 13007KT P6SM FEW050 BKN150
     FM010000 10006KT P6SM SCT040=



000
FTUS41 KPHI 300500
TAFABE
TAF
KABE 300539Z 3006/0106 00000KT 4SM BR BKN150
      TEMPO 3008/3012 2SM BR
     FM301300 11005KT P6SM SCT050
      TEMPO 3018/3022 BKN050
     FM010000 06003KT P6SM BKN150
     FM010500 07007KT 6SM BR BKN020=



000
FTUS41 KPHI 300500
TAFACY
TAF
KACY 300539Z 3006/0106 VRB03KT P6SM -SHRA OVC080
     FM300800 00000KT 6SM BR BKN060
     FM301400 11005KT P6SM BKN150
     FM010000 02005KT P6SM BKN060
     FM010500 02008KT 5SM BR BKN007=



000
FTUS41 KPHI 300500
TAFPHL
TAF
KPHL 300539Z 3006/0112 16005KT P6SM BKN150
     FM301800 12006KT P6SM SCT040 BKN150
     FM010800 02007KT 5SM BR BKN010=



000
FTUS41 KPHI 300500 AAA
TAFTTN
TAF AMD
KTTN 300508Z 3005/3024 17004KT 5SM BR OVC090
     FM301300 15005KT P6SM FEW060
     FM301900 09007KT P6SM SCT050=



000
FTUS41 KPHI 300500 AAA
TAFMIV
TAF AMD
KMIV 300508Z 3005/3024 00000KT 5SM BR SCT070 OVC100
      TEMPO 3008/3011 3SM BR
     FM301300 11005KT P6SM FEW050=



000
FTUS41 KPHI 300500 AAA
TAFABE
TAF AMD
KABE 300507Z 3005/3024 00000KT 4SM BR OVC150
     FM300800 VRB02KT 3SM BR FEW060 SCT160
     FM301300 11005KT P6SM SCT050=



000
FTUS41 KPHI 292300
TAFPNE
TAF
KPNE 292320Z 3000/3024 VRB04KT P6SM BKN100
      TEMPO 3000/3002 6SM -RA BKN080 OVC100
     FM301400 14005KT P6SM FEW060
     FM301800 09007KT P6SM FEW050=



000
FTUS41 KPHI 292300
TAFRDG
TAF
KRDG 292320Z 3000/3024 20003KT P6SM FEW060 SCT150
      TEMPO 3009/3012 4SM BR
     FM301400 14005KT P6SM SCT050=



000
FTUS41 KPHI 292300
TAFTTN
TAF
KTTN 292320Z 3000/3024 VRB04KT P6SM BKN100
     FM301300 15005KT P6SM FEW060
     FM301900 09007KT P6SM SCT050=



000
FTUS41 KPHI 292300
TAFACY
TAF
KACY 292320Z 3000/3024 25005KT P6SM BKN100
     FM300300 VRB03KT P6SM OVC090
     FM301500 10009KT P6SM FEW060=



000
FTUS41 KPHI 292300
TAFABE
TAF
KABE 292320Z 3000/3024 23004KT P6SM BKN150
     FM300800 VRB02KT P6SM FEW060 SCT160
     FM301600 11005KT P6SM SCT050=



000
FTUS41 KPHI 292300
TAFILG
TAF
KILG 292320Z 3000/3024 20003KT P6SM BKN100
      TEMPO 3000/3002 6SM -RA BKN080 OVC100
     FM300900 19002KT 6SM BR SCT100
     FM301400 18005KT P6SM FEW100
     FM301900 12006KT P6SM FEW060=



000
FTUS41 KPHI 292300
TAFMIV
TAF
KMIV 292320Z 3000/3024 VRB02KT P6SM FEW060 OVC100
      TEMPO 3008/3011 5SM BR
     FM301500 11005KT P6SM FEW050=



000
FTUS41 KPHI 292300
TAFPHL
TAF
KPHL 292320Z 3000/0106 24006KT P6SM BKN100
      TEMPO 3000/3002 6SM -RA BKN080 OVC100
     FM300900 19003KT P6SM BKN100
     FM301800 11007KT P6SM FEW050
     FM010000 04006KT P6SM SCT050=



000
FTUS41 KPHI 292000 AAA
TAFPHL
TAF AMD
KPHL 292026Z 2920/3024 24006KT P6SM BKN100
     FM300700 19002KT P6SM SCT040 OVC100
     FM301400 12005KT P6SM SCT050=



000
FTUS41 KPHI 291700
TAFABE
TAF
KABE 291720Z 2918/3018 23005KT P6SM BKN150
     FM300700 VRB02KT P6SM SCT040 OVC150
     FM301400 14005KT P6SM SCT050=



000
FTUS41 KPHI 291700
TAFPNE
TAF
KPNE 291720Z 2918/3018 22006KT P6SM BKN150
     FM300700 19002KT P6SM SCT040 OVC150
     FM301400 13005KT P6SM SCT050=



000
FTUS41 KPHI 291700
TAFMIV
TAF
KMIV 291720Z 2918/3018 23005KT P6SM BKN150
     FM292300 VRB02KT P6SM SCT040 OVC150
      TEMPO 3009/3012 5SM BR
     FM301400 11005KT P6SM SCT050=



000
FTUS41 KPHI 291700
TAFACY
TAF
KACY 291720Z 2918/3018 23006KT P6SM BKN150
     FM300100 VRB03KT P6SM SCT040 OVC150
     FM301400 08007KT P6SM SCT050=



000
FTUS41 KPHI 291700
TAFPHL
TAF
KPHL 291720Z 2918/3024 21006KT P6SM BKN150
     FM300700 19002KT P6SM SCT040 OVC150
     FM301400 13005KT P6SM SCT050=



000
FTUS41 KPHI 291700
TAFRDG
TAF
KRDG 291720Z 2918/3018 23005KT P6SM BKN150
     FM300700 VRB02KT P6SM SCT040 OVC150
      TEMPO 3009/3012 4SM BR
     FM301400 14005KT P6SM SCT050=



000
FTUS41 KPHI 291700
TAFILG
TAF
KILG 291720Z 2918/3018 20006KT P6SM BKN150
     FM300700 19002KT P6SM SCT040 OVC150
     FM301400 13005KT P6SM SCT050=



000
FTUS41 KPHI 291700
TAFTTN
TAF
KTTN 291720Z 2918/3018 22006KT P6SM BKN150
     FM300700 19002KT P6SM SCT040 OVC150
     FM301400 13005KT P6SM SCT050=



000
FTUS41 KPHI 291400 AAA
TAFPHL
TAF AMD
KPHL 291437Z 2915/3018 23006KT P6SM BKN150
     FM300000 VRB03KT P6SM OVC150=



000
FTUS41 KPHI 291100
TAFMIV
TAF
KMIV 291124Z 2912/3012 00000KT P6SM BKN250
      TEMPO 2912/2913 5SM BR
     FM291500 26005KT P6SM BKN250
     FM292300 VRB02KT P6SM OVC250
      TEMPO 3007/3011 3SM BR=



000
FTUS41 KPHI 291100
TAFPHL
TAF
KPHL 291124Z 2912/3018 24004KT P6SM BKN250
     FM291700 26005KT P6SM BKN250
     FM300000 VRB03KT P6SM OVC200=



000
FTUS41 KPHI 291100
TAFTTN
TAF
KTTN 291124Z 2912/3012 VRB02KT P6SM BKN250
     FM291500 26005KT P6SM BKN250
     FM292300 VRB03KT P6SM OVC250=



000
FTUS41 KPHI 291100
TAFRDG
TAF
KRDG 291124Z 2912/3012 VRB02KT P6SM BKN200
     FM291600 24005KT P6SM BKN200
     FM292300 VRB02KT P6SM OVC200=



000
FTUS41 KPHI 291100
TAFACY
TAF
KACY 291124Z 2912/3012 00000KT P6SM BKN250
     FM291600 19006KT P6SM BKN250
     FM300100 VRB03KT P6SM OVC250=



000
FTUS41 KPHI 291100
TAFABE
TAF
KABE 291124Z 2912/3012 26003KT P6SM BKN200
     FM291600 23005KT P6SM BKN200
     FM292300 VRB02KT P6SM OVC200=



000
FTUS41 KPHI 291100
TAFILG
TAF
KILG 291124Z 2912/3012 VRB02KT P6SM BKN250
     FM291600 26006KT P6SM BKN250
     FM292300 VRB02KT P6SM OVC250=



000
FTUS41 KPHI 291100
TAFPNE
TAF
KPNE 291124Z 2912/3012 VRB02KT P6SM BKN250
     FM291600 26006KT P6SM BKN250
     FM300000 VRB02KT P6SM OVC250=



000
FTUS41 KPHI 291000 AAA
TAFTTN
TAF AMD
KTTN 291013Z 2910/3006 VRB02KT 6SM BR BKN250
      TEMPO 2910/2912 2SM BR
     FM291200 VRB02KT P6SM BKN250
     FM291500 26005KT P6SM BKN250
     FM292300 VRB03KT P6SM OVC250=



000
FTUS41 KPHI 290900 AAB
TAFACY
TAF AMD
KACY 290927Z 2909/3006 00000KT P6SM BKN250
      TEMPO 2909/2911 3SM BR
     FM291600 19006KT P6SM BKN250
     FM300100 27003KT P6SM OVC250=



000
FTUS41 KPHI 290900 AAA
TAFABE
TAF AMD
KABE 290926Z 2909/3006 00000KT P6SM SKC
     FM291500 24005KT P6SM BKN250
     FM292300 VRB02KT P6SM OVC250=



000
FTUS41 KPHI 290900 AAA
TAFRDG
TAF AMD
KRDG 290926Z 2909/3006 00000KT P6SM BKN250
     FM291500 25005KT P6SM BKN250
     FM292300 VRB02KT P6SM OVC250=



000
FTUS41 KPHI 290900 AAB
TAFMIV
TAF AMD
KMIV 290909Z 2909/3006 00000KT 3SM BR FEW003
      TEMPO 2909/2912 3/4SM BR VV003
     FM291200 00000KT 5SM BR SCT003
     FM291400 26005KT P6SM BKN250
     FM292300 VRB02KT P6SM OVC250=



    US Dept of Commerce
    National Oceanic and Atmospheric Administration
    National Weather Service
    1325 East West Highway
    Silver Spring, MD 20910
    Page Author: NWS Internet Services Team
Disclaimer
Information Quality
Credits
Glossary
Privacy Policy
Freedom of Information Act (FOIA)
About Us
Career Opportunities